createdAt,value
2023-02-26T00:01:34.180Z,7.54
2023-02-26T00:04:02.769Z,7.67
2023-02-26T00:06:33.091Z,7.59
2023-02-26T00:09:00.427Z,7.60
2023-02-26T00:11:36.783Z,7.39
2023-02-26T00:14:03.853Z,7.61
2023-02-26T00:16:45.116Z,7.75
2023-02-26T00:19:12.999Z,7.66
2023-02-26T00:21:40.350Z,7.67
2023-02-26T00:24:08.326Z,7.69
2023-02-26T00:26:42.803Z,7.60
2023-02-26T00:29:10.632Z,7.43
2023-02-26T00:31:40.235Z,7.50
2023-02-26T00:34:12.275Z,7.57
2023-02-26T00:36:45.558Z,7.59
2023-02-26T00:39:36.673Z,7.49
2023-02-26T00:42:04.061Z,7.29
2023-02-26T00:44:31.339Z,7.30
2023-02-26T00:47:10.297Z,7.25
2023-02-26T00:50:04.164Z,7.43
2023-02-26T00:52:48.630Z,7.25
2023-02-26T00:55:15.684Z,7.24
2023-02-26T00:57:44.614Z,7.29
2023-02-26T01:00:12.937Z,7.39
2023-02-26T01:02:40.940Z,7.36
2023-02-26T01:05:09.296Z,7.31
2023-02-26T01:07:54.667Z,7.27
2023-02-26T01:10:23.510Z,7.21
2023-02-26T01:12:51.494Z,7.33
2023-02-26T01:15:21.979Z,7.31
2023-02-26T01:17:58.750Z,7.27
2023-02-26T01:20:30.374Z,7.16
2023-02-26T01:23:08.713Z,7.11
2023-02-26T01:25:59.984Z,7.19
2023-02-26T01:28:27.841Z,7.12
2023-02-26T01:31:02.396Z,7.17
2023-02-26T01:33:39.671Z,7.08
2023-02-26T01:36:16.750Z,7.12
2023-02-26T01:39:05.144Z,7.15
2023-02-26T01:42:14.702Z,7.03
2023-02-26T01:45:19.228Z,7.03
2023-02-26T01:47:50.101Z,6.98
2023-02-26T01:50:22.045Z,7.04
2023-02-26T01:52:53.074Z,6.89
2023-02-26T01:55:26.704Z,6.83
2023-02-26T01:57:59.735Z,7.02
2023-02-26T02:00:28.199Z,6.94
2023-02-26T02:03:07.973Z,7.04
2023-02-26T02:05:44.083Z,7.03
2023-02-26T02:08:13.034Z,7.19
2023-02-26T02:10:46.113Z,7.15
2023-02-26T02:13:52.183Z,7.09
2023-02-26T02:16:42.421Z,7.03
2023-02-26T02:19:41.587Z,7.08
2023-02-26T02:22:17.806Z,6.92
2023-02-26T02:24:53.726Z,6.89
2023-02-26T02:27:47.055Z,6.70
2023-02-26T02:30:37.959Z,6.80
2023-02-26T02:33:11.865Z,6.77
2023-02-26T02:35:45.978Z,6.69
2023-02-26T02:38:24.084Z,6.85
2023-02-26T02:40:59.956Z,6.80
2023-02-26T02:43:30.355Z,6.82
2023-02-26T02:46:06.042Z,6.92
2023-02-26T02:48:36.140Z,6.56
2023-02-26T02:51:11.913Z,6.77
2023-02-26T02:53:45.048Z,6.80
2023-02-26T02:56:24.629Z,6.73
2023-02-26T02:58:56.343Z,6.80
2023-02-26T03:01:26.753Z,6.69
2023-02-26T03:04:23.047Z,6.63
2023-02-26T03:06:50.392Z,6.64
2023-02-26T03:09:19.074Z,6.71
2023-02-26T03:11:47.256Z,6.70
2023-02-26T03:14:15.544Z,6.54
2023-02-26T03:16:51.351Z,6.60
2023-02-26T03:19:49.517Z,6.64
2023-02-26T03:22:32.751Z,6.47
2023-02-26T03:25:11.934Z,6.50
2023-02-26T03:28:06.094Z,6.46
2023-02-26T03:30:47.737Z,6.56
2023-02-26T03:33:20.533Z,6.67
2023-02-26T03:35:55.992Z,6.12
2023-02-26T03:38:37.844Z,6.09
2023-02-26T03:41:09.358Z,6.33
2023-02-26T03:43:39.697Z,6.17
2023-02-26T03:46:12.845Z,6.33
2023-02-26T03:48:39.822Z,5.98
2023-02-26T03:51:10.857Z,5.93
2023-02-26T03:53:53.714Z,6.02
2023-02-26T03:56:33.710Z,6.15
2023-02-26T03:59:19.476Z,6.14
2023-02-26T04:01:51.819Z,6.22
2023-02-26T04:04:26.842Z,6.14
2023-02-26T04:06:54.522Z,6.20
2023-02-26T04:09:21.781Z,6.20
2023-02-26T04:11:49.891Z,6.10
2023-02-26T04:14:16.741Z,5.94
2023-02-26T04:16:44.871Z,6.06
2023-02-26T04:19:12.108Z,6.10
2023-02-26T04:21:39.094Z,6.22
2023-02-26T04:24:06.413Z,6.28
2023-02-26T04:26:34.731Z,6.07
2023-02-26T04:29:02.796Z,6.30
2023-02-26T04:31:30.328Z,6.24
2023-02-26T04:33:57.480Z,6.28
2023-02-26T04:36:24.725Z,5.89
2023-02-26T04:38:51.678Z,5.97
2023-02-26T04:41:18.797Z,5.59
2023-02-26T04:43:48.209Z,5.87
2023-02-26T04:46:27.952Z,5.94
2023-02-26T04:48:55.267Z,5.71
2023-02-26T04:51:22.284Z,5.65
2023-02-26T04:53:51.026Z,5.79
2023-02-26T04:56:18.418Z,5.45
2023-02-26T04:58:45.855Z,5.68
2023-02-26T05:01:17.785Z,5.78
2023-02-26T05:03:45.487Z,5.66
2023-02-26T05:06:12.412Z,5.65
2023-02-26T05:08:42.334Z,5.43
2023-02-26T05:11:10.841Z,5.59
2023-02-26T05:13:37.796Z,5.39
2023-02-26T05:16:05.744Z,5.46
2023-02-26T05:18:32.590Z,5.25
2023-02-26T05:21:00.563Z,5.64
2023-02-26T05:23:27.603Z,5.55
2023-02-26T05:25:58.606Z,5.44
2023-02-26T05:28:26.729Z,5.40
2023-02-26T05:30:54.104Z,5.17
2023-02-26T05:33:21.148Z,4.95
2023-02-26T05:35:49.118Z,5.29
2023-02-26T05:38:16.155Z,5.25
2023-02-26T05:40:43.464Z,5.01
2023-02-26T05:43:10.233Z,5.23
2023-02-26T05:45:38.296Z,4.99
2023-02-26T05:48:05.466Z,5.02
2023-02-26T05:50:32.291Z,5.32
2023-02-26T05:52:59.081Z,5.51
2023-02-26T05:55:26.227Z,5.45
2023-02-26T05:57:53.162Z,5.36
2023-02-26T06:00:21.211Z,5.17
2023-02-26T06:02:48.155Z,5.40
2023-02-26T06:05:15.126Z,5.18
2023-02-26T06:07:42.227Z,5.35
2023-02-26T06:10:10.354Z,5.42
2023-02-26T06:12:37.165Z,4.97
2023-02-26T06:15:05.280Z,5.36
2023-02-26T06:17:33.142Z,5.40
2023-02-26T06:20:00.182Z,5.44
2023-02-26T06:22:27.353Z,5.69
2023-02-26T06:24:55.691Z,5.73
2023-02-26T06:27:23.346Z,5.57
2023-02-26T06:29:50.117Z,5.53
2023-02-26T06:32:17.115Z,5.53
2023-02-26T06:34:43.934Z,5.55
2023-02-26T06:37:11.490Z,5.44
2023-02-26T06:39:38.337Z,5.64
2023-02-26T06:42:05.305Z,5.62
2023-02-26T06:44:32.765Z,5.65
2023-02-26T06:46:59.481Z,5.80
2023-02-26T06:49:26.617Z,5.53
2023-02-26T06:51:53.265Z,5.73
2023-02-26T06:54:20.012Z,5.50
2023-02-26T06:56:48.457Z,5.67
2023-02-26T06:59:15.486Z,5.27
2023-02-26T07:01:42.620Z,4.94
2023-02-26T07:04:12.268Z,5.28
2023-02-26T07:06:48.244Z,5.52
2023-02-26T07:09:15.138Z,5.69
2023-02-26T07:11:41.806Z,5.43
2023-02-26T07:14:11.257Z,5.18
2023-02-26T07:16:37.942Z,4.98
2023-02-26T07:19:04.757Z,4.95
2023-02-26T07:21:31.517Z,5.03
2023-02-26T07:23:58.466Z,5.03
2023-02-26T07:26:27.993Z,5.34
2023-02-26T07:28:55.078Z,4.99
2023-02-26T07:31:22.059Z,4.97
2023-02-26T07:33:49.032Z,4.96
2023-02-26T07:36:15.851Z,4.98
2023-02-26T07:38:42.720Z,5.22
2023-02-26T07:41:10.365Z,5.36
2023-02-26T07:43:37.121Z,5.30
2023-02-26T07:46:04.706Z,4.60
2023-02-26T07:48:31.873Z,5.03
2023-02-26T07:50:58.672Z,5.16
2023-02-26T07:53:25.424Z,5.33
2023-02-26T07:55:52.287Z,5.08
2023-02-26T07:58:19.231Z,5.66
2023-02-26T08:00:46.127Z,6.00
2023-02-26T08:03:12.922Z,5.49
2023-02-26T08:05:39.619Z,7.74
2023-02-26T08:08:06.637Z,11.12
2023-02-26T08:10:33.574Z,13.22
2023-02-26T08:13:00.317Z,14.61
2023-02-26T08:15:27.251Z,14.96
2023-02-26T08:17:54.454Z,15.76
2023-02-26T08:20:21.285Z,15.34
2023-02-26T08:22:48.442Z,14.46
2023-02-26T08:25:15.335Z,14.72
2023-02-26T08:27:42.585Z,14.27
2023-02-26T08:30:10.358Z,15.69
2023-02-26T08:32:37.398Z,14.16
2023-02-26T08:35:04.346Z,12.60
2023-02-26T08:37:31.173Z,11.43
2023-02-26T08:40:00.456Z,10.29
2023-02-26T08:42:27.280Z,11.93
2023-02-26T08:44:53.971Z,12.09
2023-02-26T08:47:28.393Z,9.54
2023-02-26T08:49:55.689Z,9.60
2023-02-26T08:52:23.412Z,10.33
2023-02-26T08:54:53.858Z,10.78
2023-02-26T08:57:20.992Z,8.82
2023-02-26T08:59:47.670Z,8.40
2023-02-26T09:02:14.971Z,8.19
2023-02-26T09:04:44.546Z,7.72
2023-02-26T09:07:12.044Z,7.06
2023-02-26T09:09:38.857Z,7.54
2023-02-26T09:12:05.987Z,7.17
2023-02-26T09:14:32.976Z,7.23
2023-02-26T09:16:59.811Z,7.24
2023-02-26T09:19:27.256Z,6.77
2023-02-26T09:21:54.152Z,6.81
2023-02-26T09:24:21.118Z,6.86
2023-02-26T09:26:47.959Z,6.89
2023-02-26T09:29:15.362Z,6.08
2023-02-26T09:31:42.473Z,5.76
2023-02-26T09:34:11.400Z,6.57
2023-02-26T09:36:38.948Z,6.48
2023-02-26T09:39:06.524Z,6.95
2023-02-26T09:41:39.097Z,7.05
2023-02-26T09:44:23.658Z,6.71
2023-02-26T09:47:04.748Z,6.37
2023-02-26T09:49:50.210Z,6.24
2023-02-26T09:52:28.416Z,6.80
2023-02-26T09:55:25.035Z,6.82
2023-02-26T09:57:53.911Z,6.64
2023-02-26T10:00:39.652Z,6.75
2023-02-26T10:03:44.017Z,6.56
2023-02-26T10:06:29.676Z,6.87
2023-02-26T10:08:59.491Z,6.90
2023-02-26T10:11:34.691Z,6.46
2023-02-26T10:14:16.574Z,6.18
2023-02-26T10:16:48.572Z,6.87
2023-02-26T10:19:18.888Z,6.89
2023-02-26T10:21:52.592Z,7.06
2023-02-26T10:24:27.113Z,6.00
2023-02-26T10:27:18.619Z,6.31
2023-02-26T10:29:51.390Z,6.25
2023-02-26T10:32:37.605Z,6.20
2023-02-26T10:35:10.447Z,6.69
2023-02-26T10:37:51.356Z,6.81
2023-02-26T10:40:55.797Z,6.76
2023-02-26T10:43:24.977Z,6.42
2023-02-26T10:46:03.650Z,6.54
2023-02-26T10:49:14.632Z,6.47
2023-02-26T10:51:42.022Z,6.34
2023-02-26T10:54:28.435Z,6.21
2023-02-26T10:56:55.503Z,6.13
2023-02-26T10:59:22.567Z,6.48
2023-02-26T11:01:52.585Z,6.32
2023-02-26T11:04:23.562Z,6.65
2023-02-26T11:07:10.683Z,6.12
2023-02-26T11:09:41.436Z,5.76
2023-02-26T11:12:11.326Z,6.35
2023-02-26T11:14:38.818Z,6.34
2023-02-26T11:17:23.167Z,6.63
2023-02-26T11:19:54.126Z,6.66
2023-02-26T11:22:21.860Z,6.47
2023-02-26T11:24:52.228Z,6.34
2023-02-26T11:27:29.075Z,6.43
2023-02-26T11:30:05.983Z,7.03
2023-02-26T11:32:34.840Z,6.90
2023-02-26T11:35:01.806Z,7.00
2023-02-26T11:37:35.622Z,7.34
2023-02-26T11:40:19.283Z,7.09
2023-02-26T11:42:53.769Z,6.54
2023-02-26T11:45:27.156Z,6.88
2023-02-26T11:48:02.475Z,7.20
2023-02-26T11:50:30.757Z,6.76
2023-02-26T11:53:11.053Z,7.12
2023-02-26T11:55:47.095Z,7.06
2023-02-26T11:58:25.627Z,7.03
2023-02-26T12:00:57.980Z,7.10
2023-02-26T12:03:29.245Z,7.43
2023-02-26T12:05:58.042Z,7.29
2023-02-26T12:08:39.877Z,6.77
2023-02-26T12:11:37.762Z,6.61
2023-02-26T12:14:32.779Z,6.75
2023-02-26T12:17:21.369Z,7.06
2023-02-26T12:20:15.211Z,6.84
2023-02-26T12:22:45.113Z,7.37
2023-02-26T12:25:49.684Z,7.70
2023-02-26T12:28:34.368Z,7.74
2023-02-26T12:31:26.263Z,7.65
2023-02-26T12:34:12.178Z,7.08
2023-02-26T12:36:48.407Z,7.26
2023-02-26T12:39:53.313Z,7.63
2023-02-26T12:42:26.646Z,7.24
2023-02-26T12:45:28.286Z,7.61
2023-02-26T12:48:16.341Z,7.64
2023-02-26T12:50:58.561Z,7.89
2023-02-26T12:53:28.508Z,7.51
2023-02-26T12:56:28.201Z,7.36
2023-02-26T12:59:20.562Z,7.27
2023-02-26T13:02:05.858Z,7.55
2023-02-26T13:04:51.210Z,7.23
2023-02-26T13:07:27.291Z,7.35
2023-02-26T13:10:01.948Z,7.06
2023-02-26T13:12:37.129Z,7.37
2023-02-26T13:15:16.055Z,7.56
2023-02-26T13:17:48.307Z,7.35
2023-02-26T13:20:22.014Z,7.22
2023-02-26T13:22:53.410Z,7.67
2023-02-26T13:25:28.035Z,7.54
2023-02-26T13:27:57.485Z,7.93
2023-02-26T13:30:35.044Z,8.27
2023-02-26T13:33:03.140Z,7.90
2023-02-26T13:35:48.747Z,7.56
2023-02-26T13:38:30.767Z,7.71
2023-02-26T13:41:19.868Z,7.57
2023-02-26T13:44:13.050Z,7.96
2023-02-26T13:46:52.634Z,7.42
2023-02-26T13:49:34.840Z,7.69
2023-02-26T13:52:01.699Z,7.84
2023-02-26T13:54:35.152Z,7.76
2023-02-26T13:57:25.901Z,7.91
2023-02-26T14:00:00.584Z,7.73
2023-02-26T14:02:36.888Z,8.00
2023-02-26T14:05:11.441Z,7.67
2023-02-26T14:07:57.728Z,7.98
2023-02-26T14:10:43.440Z,8.17
2023-02-26T14:13:42.618Z,7.86
2023-02-26T14:16:23.972Z,8.01
2023-02-26T14:18:52.590Z,7.64
2023-02-26T14:21:25.844Z,7.13
2023-02-26T14:24:19.702Z,7.22
2023-02-26T14:26:50.200Z,8.02
2023-02-26T14:29:16.893Z,7.84
2023-02-26T14:32:06.140Z,7.90
2023-02-26T14:34:37.142Z,7.58
2023-02-26T14:37:07.917Z,7.87
2023-02-26T14:39:40.578Z,8.51
2023-02-26T14:42:25.128Z,7.73
2023-02-26T14:44:58.137Z,7.86
2023-02-26T14:47:27.681Z,7.94
2023-02-26T14:49:59.610Z,8.49
2023-02-26T14:52:32.571Z,8.32
2023-02-26T14:55:21.431Z,7.98
2023-02-26T14:57:58.671Z,8.04
2023-02-26T15:00:43.142Z,8.24
2023-02-26T15:03:23.942Z,8.06
2023-02-26T15:06:27.847Z,8.66
2023-02-26T15:09:42.475Z,7.96
2023-02-26T15:12:34.385Z,7.93
2023-02-26T15:15:22.678Z,8.10
2023-02-26T15:17:56.111Z,7.76
2023-02-26T15:20:36.919Z,7.80
2023-02-26T15:23:17.571Z,7.73
2023-02-26T15:25:46.915Z,7.89
2023-02-26T15:28:37.786Z,7.87
2023-02-26T15:31:07.042Z,8.12
2023-02-26T15:33:34.481Z,8.21
2023-02-26T15:36:06.576Z,7.65
2023-02-26T15:38:48.581Z,7.67
2023-02-26T15:41:16.480Z,8.11
2023-02-26T15:43:49.526Z,8.49
2023-02-26T15:46:16.650Z,8.07
2023-02-26T15:48:44.477Z,8.07
2023-02-26T15:51:16.182Z,7.98
2023-02-26T15:53:45.854Z,7.82
2023-02-26T15:56:19.649Z,7.84
2023-02-26T15:58:50.981Z,8.02
2023-02-26T16:01:19.978Z,7.65
2023-02-26T16:03:47.841Z,8.45
2023-02-26T16:06:21.079Z,7.92
2023-02-26T16:08:47.789Z,7.84
2023-02-26T16:11:15.696Z,7.74
2023-02-26T16:13:43.670Z,8.15
2023-02-26T16:16:39.703Z,8.34
2023-02-26T16:19:06.591Z,8.02
2023-02-26T16:21:38.871Z,8.01
2023-02-26T16:24:07.654Z,8.25
2023-02-26T16:26:37.634Z,7.69
2023-02-26T16:29:14.304Z,8.02
2023-02-26T16:31:41.873Z,7.69
2023-02-26T16:34:45.396Z,7.58
2023-02-26T16:37:18.075Z,8.06
2023-02-26T16:39:45.811Z,7.99
2023-02-26T16:42:20.648Z,8.20
2023-02-26T16:44:49.056Z,7.95
2023-02-26T16:47:16.288Z,7.86
2023-02-26T16:49:44.398Z,8.41
2023-02-26T16:52:20.646Z,7.75
2023-02-26T16:55:00.473Z,7.46
2023-02-26T16:57:35.993Z,7.86
2023-02-26T17:00:09.561Z,8.05
2023-02-26T17:02:37.686Z,8.26
2023-02-26T17:05:25.471Z,8.29
2023-02-26T17:08:16.681Z,8.11
2023-02-26T17:10:55.110Z,7.94
2023-02-26T17:13:28.478Z,8.15
2023-02-26T17:15:59.292Z,8.23
2023-02-26T17:18:26.200Z,8.31
2023-02-26T17:20:53.340Z,8.92
2023-02-26T17:23:22.639Z,8.49
2023-02-26T17:25:53.922Z,8.55
2023-02-26T17:28:24.211Z,8.65
2023-02-26T17:30:51.956Z,8.79
2023-02-26T17:33:19.574Z,8.20
2023-02-26T17:35:46.739Z,8.44
2023-02-26T17:38:14.454Z,7.81
2023-02-26T17:40:42.929Z,7.74
2023-02-26T17:43:10.234Z,8.41
2023-02-26T17:45:39.231Z,8.51
2023-02-26T17:48:06.575Z,8.55
2023-02-26T17:50:47.177Z,8.52
2023-02-26T17:53:15.422Z,7.96
2023-02-26T17:55:42.624Z,8.32
2023-02-26T17:58:18.484Z,8.37
2023-02-26T18:00:49.987Z,8.27
2023-02-26T18:03:17.092Z,8.32
2023-02-26T18:05:43.876Z,8.08
2023-02-26T18:08:24.099Z,8.16
2023-02-26T18:10:51.569Z,7.79
2023-02-26T18:13:19.072Z,7.65
2023-02-26T18:15:45.914Z,7.72
2023-02-26T18:18:13.866Z,7.93
2023-02-26T18:20:44.165Z,7.27
2023-02-26T18:23:17.835Z,7.82
2023-02-26T18:25:47.904Z,7.79
2023-02-26T18:28:20.934Z,7.91
2023-02-26T18:30:48.232Z,7.97
2023-02-26T18:33:17.146Z,8.32
2023-02-26T18:35:50.113Z,8.40
2023-02-26T18:38:18.848Z,8.36
2023-02-26T18:40:46.185Z,8.52
2023-02-26T18:43:13.271Z,8.16
2023-02-26T18:45:44.630Z,8.43
2023-02-26T18:48:17.322Z,8.50
2023-02-26T18:50:45.202Z,8.32
2023-02-26T18:53:12.920Z,8.38
2023-02-26T18:55:39.698Z,8.42
2023-02-26T18:58:06.454Z,8.35
2023-02-26T19:00:33.821Z,8.37
2023-02-26T19:03:01.238Z,8.37
2023-02-26T19:05:28.185Z,8.38
2023-02-26T19:07:54.998Z,8.50
2023-02-26T19:10:22.803Z,8.36
2023-02-26T19:12:50.937Z,8.37
2023-02-26T19:15:18.352Z,8.35
2023-02-26T19:17:46.219Z,8.49
2023-02-26T19:20:13.916Z,8.54
2023-02-26T19:22:41.934Z,8.57
2023-02-26T19:25:09.533Z,8.53
2023-02-26T19:27:36.854Z,8.43
2023-02-26T19:30:04.740Z,8.35
2023-02-26T19:32:31.773Z,8.26
2023-02-26T19:34:58.804Z,8.42
2023-02-26T19:37:25.629Z,8.48
2023-02-26T19:39:52.326Z,8.41
2023-02-26T19:42:20.960Z,8.43
2023-02-26T19:44:47.749Z,8.44
2023-02-26T19:47:14.488Z,8.51
2023-02-26T19:49:41.191Z,8.54
2023-02-26T19:52:08.640Z,8.44
2023-02-26T19:54:35.684Z,8.38
2023-02-26T19:57:02.379Z,8.37
2023-02-26T19:59:29.271Z,8.45
2023-02-26T20:01:56.091Z,8.41
2023-02-26T20:04:22.841Z,8.27
2023-02-26T20:06:49.487Z,8.24
2023-02-26T20:09:17.442Z,8.22
2023-02-26T20:11:48.082Z,8.11
2023-02-26T20:14:15.353Z,8.24
2023-02-26T20:16:47.395Z,7.66
2023-02-26T20:19:14.643Z,7.82
2023-02-26T20:21:41.800Z,7.45
2023-02-26T20:24:08.866Z,7.71
2023-02-26T20:26:35.710Z,7.84
2023-02-26T20:29:02.445Z,7.82
2023-02-26T20:31:30.640Z,7.71
2023-02-26T20:33:58.852Z,7.61
2023-02-26T20:36:25.878Z,7.68
2023-02-26T20:38:52.667Z,7.39
2023-02-26T20:41:19.581Z,7.54
2023-02-26T20:43:46.340Z,7.71
2023-02-26T20:46:13.429Z,7.59
2023-02-26T20:48:41.885Z,7.68
2023-02-26T20:51:09.978Z,7.59
2023-02-26T20:53:36.865Z,7.41
2023-02-26T20:56:03.953Z,7.20
2023-02-26T20:58:30.953Z,6.84
2023-02-26T21:00:58.021Z,7.14
2023-02-26T21:03:25.361Z,6.90
2023-02-26T21:05:52.401Z,6.83
2023-02-26T21:08:19.555Z,7.13
2023-02-26T21:10:46.284Z,7.13
2023-02-26T21:13:13.328Z,7.15
2023-02-26T21:15:40.426Z,7.08
2023-02-26T21:18:07.184Z,7.15
2023-02-26T21:20:34.164Z,6.79
2023-02-26T21:23:01.311Z,6.87
2023-02-26T21:25:31.373Z,6.74
2023-02-26T21:27:58.621Z,6.41
2023-02-26T21:30:25.465Z,6.78
2023-02-26T21:32:52.475Z,6.87
2023-02-26T21:35:19.688Z,7.02
2023-02-26T21:37:46.935Z,6.74
2023-02-26T21:40:15.400Z,6.73
2023-02-26T21:42:43.286Z,6.59
2023-02-26T21:45:10.747Z,6.61
2023-02-26T21:47:37.708Z,6.83
2023-02-26T21:50:06.049Z,6.33
2023-02-26T21:52:34.545Z,6.56
2023-02-26T21:55:01.280Z,6.81
2023-02-26T21:57:27.946Z,7.07
2023-02-26T21:59:54.819Z,6.76
2023-02-26T22:02:21.613Z,6.57
2023-02-26T22:04:48.565Z,6.93
2023-02-26T22:07:15.832Z,6.75
2023-02-26T22:09:46.269Z,6.56
2023-02-26T22:12:14.938Z,6.59
2023-02-26T22:14:41.884Z,6.63
2023-02-26T22:17:08.895Z,6.89
2023-02-26T22:19:36.178Z,6.70
2023-02-26T22:22:03.036Z,6.53
2023-02-26T22:24:30.025Z,6.56
2023-02-26T22:26:56.781Z,6.51
2023-02-26T22:29:23.626Z,6.35
2023-02-26T22:31:51.030Z,6.15
2023-02-26T22:34:20.115Z,6.36
2023-02-26T22:36:46.832Z,6.33
2023-02-26T22:39:14.449Z,6.53
2023-02-26T22:41:41.371Z,6.65
2023-02-26T22:44:08.178Z,6.90
2023-02-26T22:46:35.070Z,6.75
2023-02-26T22:49:01.819Z,6.42
2023-02-26T22:51:29.977Z,6.64
2023-02-26T22:53:56.954Z,6.77
2023-02-26T22:56:24.350Z,6.50
2023-02-26T22:58:51.391Z,6.31
2023-02-26T23:01:19.250Z,6.04
2023-02-26T23:03:46.435Z,6.34
2023-02-26T23:06:13.750Z,6.35
2023-02-26T23:08:40.657Z,6.27
2023-02-26T23:11:07.947Z,5.98
2023-02-26T23:13:35.582Z,6.17
2023-02-26T23:16:04.051Z,6.07
2023-02-26T23:18:32.199Z,6.37
2023-02-26T23:20:59.027Z,6.03
2023-02-26T23:23:25.822Z,5.99
2023-02-26T23:25:53.098Z,6.06
2023-02-26T23:28:19.979Z,6.17
2023-02-26T23:30:46.772Z,6.34
2023-02-26T23:33:13.983Z,6.44
2023-02-26T23:35:41.093Z,6.51
2023-02-26T23:38:08.072Z,6.21
2023-02-26T23:40:35.208Z,6.27
2023-02-26T23:43:02.593Z,6.12
2023-02-26T23:45:29.638Z,5.87
2023-02-26T23:47:56.359Z,5.80
2023-02-26T23:50:23.512Z,6.15
2023-02-26T23:52:50.483Z,6.13
2023-02-26T23:55:17.526Z,5.91
2023-02-26T23:57:44.809Z,5.86
